Villa Grande, California
Current Conditions -  °F | °C
As of 5:53 PM on Monday 20 Oct 2014 (Local Time) from KSTS Reporting Station
Scattered Clouds Scattered Clouds  
Wind Chill: 64°   Ceiling: Unl
Heat Index: 64°   Visibility: 10mi
Dew Point: 51°   Wind: 9mph
Humidity: 63%   Direction: 260°W
Pressure: 29.95"   Gusts: NA
Location:  38.47°N, 123.02°W
Report Text: KSTS 210053Z 26008KT 10SM SCT080 18/11 A2995 RMK AO2 SLP136 T01780106
Loading
Personal Weather Stations






























Interactive Weather Map
Tropical Storm Tracking
New forecast layout! Learn more

10-Day Weather Forecast

Advertisements
Track Severe Weather on mobile